Terminal Aerodrome Forecast
Issued by NWS

Home | Current Version | Previous Version | Text Only | Print | Product List | Glossary On
Versions: 1 2 3 4 5 6 7 8 9 10 11 12 13 14 15 16 17 18 19 20 21 22 23 24 25
000
FTUS41 KGYX 302320
TAFHIE
TAF
KHIE 302320Z 0100/0124 24005KT P6SM -SHRA BKN060 OVC100
     FM010300 00000KT 5SM BR OVC060
     FM011200 16007KT 3SM -RA BR OVC030 PROB30 0117/0122 3SM -TSRA
      OVC030CB=

USA.gov is the U.S. government's official web portal to all federal, state and local government web resources and services.